Time;durP1;ratioP1;P1;durP2;ratioP2;P2;SDS_P1;SDS_P2;PMS_P1;PMS_P2;Temp;Humidity;BMP_temperature;BMP_pressure;BME280_temperature;BME280_humidity;BME280_pressure;Samples;Min_cycle;Max_cycle;Signal;HPM_P1;HPM_P2
2021/12/09 00:00:16;;;;;;;2.57;1.57;;;23.60;99.90;;;;;;5071607;28;20269;-71
2021/12/09 00:02:44;;;;;;;3.30;1.93;;;23.70;99.90;;;;;;5072558;28;20213;-71
2021/12/09 00:05:16;;;;;;;4.30;2.40;;;24.80;99.90;;;;;;5071769;28;20230;-72
2021/12/09 00:07:44;;;;;;;3.00;1.50;;;25.00;99.90;;;;;;5072136;28;20222;-71
2021/12/09 00:10:13;;;;;;;3.43;1.77;;;25.30;99.90;;;;;;5070822;28;20207;-74
2021/12/09 00:12:41;;;;;;;2.23;1.40;;;24.70;99.90;;;;;;5072105;28;20179;-72
2021/12/09 00:15:09;;;;;;;3.33;1.70;;;24.50;99.90;;;;;;5071988;28;20204;-72
2021/12/09 00:17:37;;;;;;;3.17;1.47;;;24.10;99.90;;;;;;5071554;28;20253;-71
2021/12/09 00:20:06;;;;;;;6.93;4.13;;;24.10;99.90;;;;;;5071910;28;20180;-71
2021/12/09 00:22:34;;;;;;;4.77;1.83;;;24.50;99.90;;;;;;5072052;28;20662;-70
2021/12/09 00:25:01;;;;;;;3.30;1.73;;;24.40;99.90;;;;;;5071509;28;20346;-72
2021/12/09 00:27:29;;;;;;;4.63;1.90;;;24.50;99.90;;;;;;5071016;28;20659;-72
2021/12/09 00:29:57;;;;;;;4.47;1.60;;;25.10;99.90;;;;;;5070864;28;20261;-70
2021/12/09 00:32:25;;;;;;;2.00;1.50;;;25.00;99.90;;;;;;5071740;28;20180;-72
2021/12/09 00:34:53;;;;;;;4.27;1.80;;;25.20;99.90;;;;;;5071652;28;20179;-71
2021/12/09 00:37:50;;;;;;;3.70;1.57;;;25.40;99.90;;;;;;5071555;28;20189;-70
2021/12/09 00:40:18;;;;;;;2.53;1.67;;;25.40;99.90;;;;;;5051907;28;20181;-70
2021/12/09 00:42:48;;;;;;;2.20;1.67;;;24.70;99.90;;;;;;5070056;28;20236;-71
2021/12/09 00:45:16;;;;;;;4.63;1.63;;;24.30;99.90;;;;;;5071598;28;20180;-71
2021/12/09 00:47:44;;;;;;;4.60;1.60;;;24.10;99.90;;;;;;5071406;28;20722;-71
2021/12/09 00:50:12;;;;;;;5.00;1.70;;;24.00;99.90;;;;;;5071466;28;20314;-72
2021/12/09 00:52:40;;;;;;;2.63;1.53;;;23.90;99.90;;;;;;5071610;28;20205;-71
2021/12/09 00:55:09;;;;;;;4.93;1.70;;;23.90;99.90;;;;;;5071097;28;20657;-71
2021/12/09 00:57:38;;;;;;;2.23;1.50;;;23.90;99.90;;;;;;5071505;28;20658;-72
2021/12/09 01:00:10;;;;;;;4.27;1.63;;;23.90;99.90;;;;;;5071175;28;20175;-70
2021/12/09 01:02:38;;;;;;;6.60;2.03;;;24.10;99.90;;;;;;5071701;28;20241;-70
2021/12/09 01:05:08;;;;;;;15.03;2.77;;;24.40;99.90;;;;;;5070924;28;20223;-70
2021/12/09 01:07:37;;;;;;;6.97;2.00;;;25.10;99.90;;;;;;5076820;28;20193;-71
2021/12/09 01:10:07;;;;;;;5.10;1.80;;;25.40;99.90;;;;;;5082925;28;20226;-71
2021/12/09 01:12:35;;;;;;;4.03;1.53;;;24.90;99.90;;;;;;5080468;28;20280;-71
2021/12/09 01:15:04;;;;;;;5.60;1.73;;;24.50;99.90;;;;;;5072081;28;20190;-71
2021/12/09 01:17:32;;;;;;;7.10;2.93;;;25.50;99.90;;;;;;5070523;28;20275;-70
2021/12/09 01:20:00;;;;;;;5.73;2.13;;;25.90;99.90;;;;;;5071926;28;20195;-71
2021/12/09 01:22:36;;;;;;;5.40;1.60;;;25.40;99.90;;;;;;5074206;28;20663;-71
2021/12/09 01:25:05;;;;;;;4.57;1.77;;;25.20;99.90;;;;;;5076939;28;20194;-69
2021/12/09 01:27:36;;;;;;;4.23;1.50;;;25.20;99.90;;;;;;5074389;28;20194;-69
2021/12/09 01:30:10;;;;;;;2.80;1.47;;;25.10;99.90;;;;;;5076270;28;20212;-69
2021/12/09 01:32:42;;;;;;;2.63;1.20;;;25.00;99.90;;;;;;5076086;28;20188;-69
2021/12/09 01:35:11;;;;;;;4.47;1.40;;;25.20;99.90;;;;;;5076362;28;20262;-71
2021/12/09 01:37:39;;;;;;;3.17;1.13;;;25.80;99.90;;;;;;5075327;28;20184;-70
2021/12/09 01:40:08;;;;;;;5.37;1.20;;;25.80;99.90;;;;;;5076165;28;20279;-71
2021/12/09 01:42:36;;;;;;;3.40;1.40;;;25.80;99.90;;;;;;5076539;28;20176;-71
2021/12/09 01:45:06;;;;;;;6.30;1.57;;;25.20;99.90;;;;;;5075938;28;20183;-71
2021/12/09 01:47:34;;;;;;;3.63;1.60;;;25.20;99.90;;;;;;5075065;28;20262;-70
2021/12/09 01:50:02;;;;;;;3.77;1.40;;;25.20;99.90;;;;;;5074709;28;20226;-70
2021/12/09 01:52:30;;;;;;;4.13;1.07;;;25.20;99.90;;;;;;5074806;28;20276;-71
2021/12/09 01:54:57;;;;;;;4.17;1.13;;;24.80;99.90;;;;;;5075451;28;20641;-72
2021/12/09 01:57:25;;;;;;;4.03;1.20;;;25.00;99.90;;;;;;5073734;28;20188;-70
2021/12/09 01:59:53;;;;;;;4.93;1.80;;;24.90;99.90;;;;;;5074245;28;20614;-69
2021/12/09 02:02:21;;;;;;;2.43;1.40;;;25.20;99.90;;;;;;5065835;28;20176;-69
2021/12/09 02:04:49;;;;;;;4.03;1.00;;;25.20;99.90;;;;;;5074670;28;20665;-70
2021/12/09 02:07:17;;;;;;;2.37;1.00;;;25.70;99.90;;;;;;5074954;28;20216;-70
2021/12/09 02:09:45;;;;;;;1.90;1.13;;;26.80;99.90;;;;;;5075428;28;20680;-71
2021/12/09 02:12:12;;;;;;;3.53;1.00;;;26.30;99.90;;;;;;5075351;28;20192;-71
2021/12/09 02:14:43;;;;;;;3.17;1.00;;;25.50;99.90;;;;;;5075693;28;20637;-72
2021/12/09 02:17:12;;;;;;;2.27;0.93;;;25.30;99.90;;;;;;5075518;28;20517;-71
2021/12/09 02:19:44;;;;;;;5.37;1.00;;;25.40;99.90;;;;;;5075389;28;20187;-70
2021/12/09 02:22:16;;;;;;;3.10;1.60;;;25.40;99.90;;;;;;5074157;28;20200;-71
2021/12/09 02:24:44;;;;;;;9.23;2.03;;;25.40;99.90;;;;;;5075623;28;20184;-73
2021/12/09 02:27:12;;;;;;;5.87;1.70;;;25.10;99.90;;;;;;5077575;28;20176;-71
2021/12/09 02:29:41;;;;;;;10.83;1.87;;;25.10;99.90;;;;;;5074406;28;20654;-71
2021/12/09 02:32:09;;;;;;;7.23;1.83;;;25.00;99.90;;;;;;5075780;28;20191;-73
2021/12/09 02:34:37;;;;;;;5.00;1.50;;;24.90;99.90;;;;;;5075660;28;20642;-70
2021/12/09 02:37:05;;;;;;;5.27;1.70;;;25.00;99.90;;;;;;5075760;28;20558;-72
2021/12/09 02:39:32;;;;;;;8.47;2.27;;;25.00;99.90;;;;;;5075559;28;20184;-73
2021/12/09 02:42:00;;;;;;;9.13;1.53;;;25.20;99.90;;;;;;5075690;28;20192;-71
2021/12/09 02:44:28;;;;;;;17.73;2.70;;;25.10;99.90;;;;;;5075773;28;20172;-71
2021/12/09 02:46:56;;;;;;;19.27;8.27;;;25.00;99.90;;;;;;5075520;28;20226;-71
2021/12/09 02:49:28;;;;;;;8.13;2.17;;;25.00;99.90;;;;;;5075513;28;20208;-70
2021/12/09 02:51:59;;;;;;;6.50;2.60;;;24.90;99.90;;;;;;5074113;28;20184;-72
2021/12/09 02:54:28;;;;;;;7.67;2.00;;;24.60;99.90;;;;;;5075344;28;20574;-72
2021/12/09 02:56:59;;;;;;;9.97;2.40;;;24.20;99.90;;;;;;5075299;28;20245;-70
2021/12/09 02:59:28;;;;;;;6.63;1.83;;;24.20;99.90;;;;;;5075123;28;20633;-70
2021/12/09 03:02:00;;;;;;;4.73;1.93;;;24.00;99.90;;;;;;5073383;28;20342;-71
2021/12/09 03:04:40;;;;;;;6.53;2.37;;;24.10;99.90;;;;;;5074929;28;20263;-72
2021/12/09 03:07:13;;;;;;;5.83;2.00;;;24.60;99.90;;;;;;5075421;28;20191;-72
2021/12/09 03:09:49;;;;;;;5.73;1.67;;;24.70;99.90;;;;;;5075441;28;20594;-73
2021/12/09 03:12:25;;;;;;;12.60;1.97;;;24.70;99.90;;;;;;5074973;28;20175;-70
2021/12/09 03:14:53;;;;;;;7.40;2.23;;;24.90;99.90;;;;;;5075392;28;20700;-71
2021/12/09 03:17:22;;;;;;;8.70;1.90;;;25.50;99.90;;;;;;5073784;28;20215;-71
2021/12/09 03:19:51;;;;;;;6.33;1.83;;;26.00;99.90;;;;;;5075282;28;20255;-71
2021/12/09 03:22:19;;;;;;;7.60;1.67;;;25.50;99.90;;;;;;5073771;28;20190;-72
2021/12/09 03:24:47;;;;;;;6.70;2.03;;;25.20;99.90;;;;;;5073879;28;20716;-71
2021/12/09 03:27:15;;;;;;;6.87;1.70;;;25.10;99.90;;;;;;5074958;28;20175;-71
2021/12/09 03:29:43;;;;;;;6.23;1.60;;;24.80;99.90;;;;;;5074838;28;20238;-72
2021/12/09 03:32:14;;;;;;;9.40;2.20;;;24.80;99.90;;;;;;5074994;28;20183;-71
2021/12/09 03:34:46;;;;;;;5.93;1.70;;;24.80;99.90;;;;;;5073217;28;20706;-73
2021/12/09 03:37:21;;;;;;;8.37;2.27;;;24.80;99.90;;;;;;5073551;28;20540;-73
2021/12/09 03:39:50;;;;;;;7.73;1.97;;;24.80;99.90;;;;;;5074790;28;20179;-74
2021/12/09 03:42:21;;;;;;;4.73;1.90;;;24.60;99.90;;;;;;5073834;28;20180;-70
2021/12/09 03:44:50;;;;;;;6.30;1.90;;;24.30;99.90;;;;;;5071244;28;20180;-73
2021/12/09 03:47:21;;;;;;;4.03;1.70;;;24.40;99.90;;;;;;5074156;28;20172;-71
2021/12/09 03:49:50;;;;;;;7.07;2.53;;;24.60;99.90;;;;;;5072816;28;20688;-70
2021/12/09 03:52:17;;;;;;;6.10;1.63;;;25.40;99.90;;;;;;5074144;28;20309;-71
2021/12/09 03:54:46;;;;;;;9.27;2.00;;;26.20;99.90;;;;;;5073692;28;20168;-71
2021/12/09 03:57:15;;;;;;;6.90;1.83;;;26.60;99.90;;;;;;5074159;28;20578;-71
2021/12/09 03:59:43;;;;;;;11.57;2.97;;;26.70;99.90;;;;;;5074051;28;20578;-67
2021/12/09 04:02:12;;;;;;;10.07;2.10;;;26.70;99.90;;;;;;5074133;28;20208;-70
2021/12/09 04:04:39;;;;;;;6.30;1.87;;;27.20;99.90;;;;;;5072053;28;20195;-71
2021/12/09 04:07:07;;;;;;;6.83;2.20;;;27.60;99.90;;;;;;5074039;28;20179;-72
2021/12/09 04:09:36;;;;;;;6.00;1.80;;;27.70;99.90;;;;;;5073574;28;20640;-72
2021/12/09 04:12:04;;;;;;;3.33;1.67;;;27.70;99.90;;;;;;5073772;28;20229;-72
2021/12/09 04:14:32;;;;;;;6.43;2.13;;;27.50;99.90;;;;;;5072384;28;20207;-72
2021/12/09 04:17:00;;;;;;;6.53;2.13;;;27.10;99.90;;;;;;5073788;28;20584;-71
2021/12/09 04:19:28;;;;;;;3.00;1.50;;;27.20;99.90;;;;;;5073853;28;20187;-72
2021/12/09 04:21:56;;;;;;;8.20;1.83;;;27.40;99.90;;;;;;5073725;28;20176;-71
2021/12/09 04:24:24;;;;;;;10.77;6.83;;;27.00;99.90;;;;;;5073783;28;20184;-72
2021/12/09 04:26:53;;;;;;;6.13;1.60;;;26.60;99.90;;;;;;5072660;28;20184;-72
2021/12/09 04:29:21;;;;;;;7.40;2.23;;;26.00;99.90;;;;;;5068696;28;20617;-68
2021/12/09 04:31:51;;;;;;;7.70;3.07;;;25.70;99.90;;;;;;5068622;28;20661;-70
2021/12/09 04:34:20;;;;;;;4.70;1.77;;;25.40;99.90;;;;;;5069812;28;20237;-70
2021/12/09 04:36:49;;;;;;;7.27;1.87;;;25.10;99.90;;;;;;5058387;28;20573;-70
2021/12/09 04:39:17;;;;;;;6.30;1.90;;;25.10;99.90;;;;;;5071309;28;20188;-67
2021/12/09 04:41:45;;;;;;;4.37;1.60;;;25.10;99.90;;;;;;5071391;28;20211;-68
2021/12/09 04:44:13;;;;;;;3.33;1.60;;;25.10;99.90;;;;;;5071219;28;20308;-66
2021/12/09 04:46:41;;;;;;;4.77;1.73;;;25.50;99.90;;;;;;5071091;28;20183;-69
2021/12/09 04:49:09;;;;;;;7.93;1.53;;;25.50;99.90;;;;;;5070935;28;20262;-68
2021/12/09 04:51:37;;;;;;;6.57;1.83;;;25.30;99.90;;;;;;5070777;28;20224;-69
2021/12/09 04:54:06;;;;;;;9.03;2.20;;;25.00;99.90;;;;;;5069674;28;20198;-69
2021/12/09 04:56:35;;;;;;;7.40;2.00;;;24.60;99.90;;;;;;5070755;28;20195;-68
2021/12/09 04:59:04;;;;;;;12.33;2.00;;;24.10;99.90;;;;;;5070145;28;20209;-68
2021/12/09 05:01:31;;;;;;;10.53;1.97;;;23.70;99.90;;;;;;5070457;28;20532;-67
2021/12/09 05:03:59;;;;;;;8.00;2.20;;;23.60;99.90;;;;;;5068694;28;20201;-68
2021/12/09 05:06:26;;;;;;;6.23;2.07;;;23.40;99.90;;;;;;5068624;28;20296;-68
2021/12/09 05:08:55;;;;;;;4.57;2.03;;;23.10;99.90;;;;;;5070593;28;20219;-69
2021/12/09 05:13:58;;;;;;;10.07;2.20;;;22.80;99.90;;;;;;5070194;28;20172;-69
2021/12/09 05:16:26;;;;;;;10.63;2.27;;;22.40;99.90;;;;;;5071003;28;20534;-70
2021/12/09 05:18:58;;;;;;;12.77;2.13;;;21.40;99.90;;;;;;5069863;28;20444;-70
2021/12/09 05:21:36;;;;;;;13.80;3.00;;;20.10;99.90;;;;;;5070900;28;20222;-70
2021/12/09 05:24:06;;;;;;;9.53;2.60;;;19.40;99.90;;;;;;5069624;28;20191;-74
2021/12/09 05:26:41;;;;;;;11.00;2.90;;;18.80;99.90;;;;;;5070011;28;20208;-71
2021/12/09 05:29:08;;;;;;;12.33;3.10;;;18.30;99.90;;;;;;5069731;28;20244;-73
2021/12/09 05:34:21;;;;;;;11.20;4.57;;;18.20;99.90;;;;;;5070209;28;20202;-71
2021/12/09 05:36:49;;;;;;;11.63;6.17;;;18.30;99.90;;;;;;5069816;28;20213;-71
2021/12/09 05:39:18;;;;;;;12.47;5.40;;;18.40;99.90;;;;;;5070127;28;20179;-72
2021/12/09 05:41:45;;;;;;;11.40;4.53;;;18.40;99.90;;;;;;5070431;28;20590;-70
2021/12/09 05:44:14;;;;;;;10.60;4.60;;;18.50;99.90;;;;;;5070872;28;20200;-72
2021/12/09 05:46:47;;;;;;;10.40;6.13;;;18.80;99.90;;;;;;5070861;28;20209;-71
2021/12/09 05:49:15;;;;;;;11.17;6.23;;;18.80;99.90;;;;;;5070353;28;20643;-72
2021/12/09 05:51:44;;;;;;;13.53;6.30;;;18.90;99.90;;;;;;5070548;28;20681;-71
2021/12/09 05:54:12;;;;;;;14.27;5.63;;;19.00;99.90;;;;;;5070094;28;20246;-71
2021/12/09 05:56:39;;;;;;;11.87;5.23;;;19.10;99.90;;;;;;5069904;28;20219;-71
2021/12/09 05:59:07;;;;;;;9.37;5.03;;;19.10;99.90;;;;;;5070137;28;20175;-71
2021/12/09 06:01:36;;;;;;;10.00;4.63;;;19.10;99.90;;;;;;5070812;28;20180;-70
2021/12/09 06:04:04;;;;;;;8.77;3.90;;;19.20;99.90;;;;;;5071051;28;20179;-72
2021/12/09 06:06:33;;;;;;;7.60;3.87;;;19.20;99.90;;;;;;5070225;28;20243;-70
2021/12/09 06:09:00;;;;;;;8.67;4.00;;;19.30;99.90;;;;;;5071947;28;20190;-72
2021/12/09 06:11:27;;;;;;;8.87;3.50;;;19.50;99.90;;;;;;5086795;28;20196;-69
2021/12/09 06:13:55;;;;;;;7.27;3.40;;;19.70;99.90;;;;;;5099075;28;20160;-69
2021/12/09 06:16:24;;;;;;;8.23;3.67;;;19.80;99.90;;;;;;5091259;28;20199;-71
2021/12/09 06:18:53;;;;;;;10.10;3.67;;;19.80;99.90;;;;;;5074974;28;20198;-71
2021/12/09 06:21:20;;;;;;;9.00;3.37;;;20.00;99.90;;;;;;5074311;28;20206;-71
2021/12/09 06:23:48;;;;;;;6.87;3.17;;;20.00;99.90;;;;;;5074166;28;20180;-72
2021/12/09 06:26:15;;;;;;;5.70;2.80;;;20.10;99.90;;;;;;5073993;28;20212;-70
2021/12/09 06:28:42;;;;;;;8.60;3.17;;;20.30;99.90;;;;;;5073927;28;20176;-70
2021/12/09 06:31:11;;;;;;;4.57;2.47;;;20.40;99.90;;;;;;5073698;28;20208;-69
2021/12/09 06:33:38;;;;;;;9.23;2.40;;;20.30;99.90;;;;;;5073675;28;20177;-70
2021/12/09 06:36:06;;;;;;;5.33;2.33;;;20.40;99.90;;;;;;5073599;28;20353;-71
2021/12/09 06:38:35;;;;;;;4.73;2.30;;;20.40;99.90;;;;;;5073738;28;20176;-70
2021/12/09 06:41:03;;;;;;;3.73;2.40;;;20.40;99.90;;;;;;5073656;28;20172;-69
2021/12/09 06:43:30;;;;;;;4.00;2.47;;;20.20;99.90;;;;;;5073489;28;20228;-70
2021/12/09 06:45:59;;;;;;;6.37;2.40;;;20.10;99.90;;;;;;5073496;28;20574;-71
2021/12/09 06:48:26;;;;;;;4.00;2.37;;;20.00;99.90;;;;;;5073090;28;20623;-70
2021/12/09 06:50:53;;;;;;;7.13;2.80;;;20.00;99.90;;;;;;5072178;28;20487;-70
2021/12/09 06:53:21;;;;;;;5.43;2.53;;;20.00;99.90;;;;;;5073455;28;20176;-71
2021/12/09 06:55:48;;;;;;;6.93;2.93;;;19.90;99.90;;;;;;5073567;28;20671;-72
2021/12/09 06:58:15;;;;;;;4.17;2.77;;;19.80;99.90;;;;;;5073430;28;20183;-72
2021/12/09 07:00:46;;;;;;;5.43;2.50;;;19.70;99.90;;;;;;5073305;28;20172;-70
2021/12/09 07:03:20;;;;;;;4.50;2.90;;;19.70;99.90;;;;;;5073301;28;20200;-73
2021/12/09 07:05:48;;;;;;;4.23;2.70;;;19.70;99.90;;;;;;5072959;28;20228;-73
2021/12/09 07:08:16;;;;;;;6.60;2.53;;;19.70;99.90;;;;;;5073367;28;20181;-73
2021/12/09 07:10:45;;;;;;;4.27;2.50;;;19.60;99.90;;;;;;5073238;28;20218;-73
2021/12/09 07:13:13;;;;;;;5.13;2.60;;;19.40;99.90;;;;;;5055245;28;20183;-73
2021/12/09 07:15:41;;;;;;;5.53;2.63;;;19.40;99.90;;;;;;5072059;28;20252;-72
2021/12/09 07:18:08;;;;;;;7.50;2.80;;;19.30;99.90;;;;;;5072922;28;20229;-71
2021/12/09 07:20:36;;;;;;;6.37;2.63;;;19.10;99.90;;;;;;5072250;28;20198;-72
2021/12/09 07:23:04;;;;;;;7.30;3.03;;;19.00;99.90;;;;;;5072470;28;20187;-73
2021/12/09 07:25:31;;;;;;;8.77;3.20;;;18.80;99.90;;;;;;5072642;28;20195;-72
2021/12/09 07:27:59;;;;;;;9.43;3.13;;;18.80;99.90;;;;;;5072432;28;20271;-73
2021/12/09 07:30:27;;;;;;;7.20;2.87;;;18.80;99.90;;;;;;5072619;28;20369;-73
2021/12/09 07:32:55;;;;;;;10.57;3.27;;;18.70;99.90;;;;;;5072273;28;20657;-72
2021/12/09 07:35:26;;;;;;;7.37;4.27;;;18.80;99.90;;;;;;5072480;28;20179;-73
2021/12/09 07:37:53;;;;;;;7.37;3.97;;;18.70;99.90;;;;;;5072334;28;20532;-72
2021/12/09 07:40:21;;;;;;;13.17;4.23;;;18.80;99.90;;;;;;5071775;28;20681;-74
2021/12/09 07:42:48;;;;;;;13.63;4.70;;;18.90;99.90;;;;;;5072177;28;20625;-72
2021/12/09 07:45:17;;;;;;;11.53;5.53;;;19.00;99.90;;;;;;5072406;28;20247;-72
2021/12/09 07:47:45;;;;;;;11.83;5.03;;;18.90;99.90;;;;;;5072750;28;20249;-73
2021/12/09 07:50:16;;;;;;;10.17;4.70;;;19.00;99.90;;;;;;5071872;28;20683;-73
2021/12/09 07:52:47;;;;;;;12.53;6.00;;;19.10;99.90;;;;;;5072337;28;20527;-71
2021/12/09 07:55:16;;;;;;;10.93;6.27;;;18.90;99.90;;;;;;5072058;28;20184;-72
2021/12/09 07:57:44;;;;;;;13.43;5.17;;;18.90;99.90;;;;;;5072305;28;20263;-72
2021/12/09 08:00:22;;;;;;;11.23;4.20;;;18.90;99.90;;;;;;5071130;28;20188;-72
2021/12/09 08:02:51;;;;;;;10.33;4.13;;;18.90;99.90;;;;;;5070494;28;20535;-71
2021/12/09 08:05:19;;;;;;;9.80;4.50;;;18.90;99.90;;;;;;5068609;28;20736;-72
2021/12/09 08:07:47;;;;;;;10.87;4.80;;;18.70;99.90;;;;;;5071721;28;20225;-71
2021/12/09 08:10:17;;;;;;;9.63;3.67;;;18.70;99.90;;;;;;5071137;28;20295;-72
2021/12/09 08:12:46;;;;;;;12.87;4.43;;;18.80;99.90;;;;;;5071623;28;20645;-71
2021/12/09 08:15:15;;;;;;;12.57;4.77;;;18.80;99.90;;;;;;5070440;28;20184;-73
2021/12/09 08:20:15;;;;;;;13.20;4.27;;;18.80;99.90;;;;;;5071357;28;20212;-72
2021/12/09 08:22:44;;;;;;;14.47;3.93;;;18.80;99.90;;;;;;5071992;28;20183;-73
2021/12/09 08:25:13;;;;;;;8.53;3.63;;;18.70;99.90;;;;;;5071800;28;20176;-72
2021/12/09 08:27:43;;;;;;;9.27;4.20;;;18.80;99.90;;;;;;5071492;28;20571;-72
2021/12/09 08:30:14;;;;;;;12.30;4.30;;;18.80;99.90;;;;;;5071071;28;20215;-72
2021/12/09 08:32:42;;;;;;;9.80;4.17;;;18.80;99.90;;;;;;5070467;28;20191;-73
2021/12/09 08:35:09;;;;;;;14.90;4.47;;;18.80;99.90;;;;;;5071667;28;20671;-72
2021/12/09 08:37:37;;;;;;;6.87;3.63;;;18.80;99.90;;;;;;5071239;28;20187;-74
2021/12/09 08:40:07;;;;;;;9.20;3.50;;;18.80;99.90;;;;;;5071263;28;20190;-73
2021/12/09 08:42:35;;;;;;;7.97;3.50;;;18.70;99.90;;;;;;5071502;28;20214;-71
2021/12/09 08:45:06;;;;;;;11.80;3.73;;;18.70;99.90;;;;;;5071539;28;20649;-72
2021/12/09 08:47:33;;;;;;;9.40;3.53;;;18.70;99.90;;;;;;5070911;28;20190;-72
2021/12/09 08:50:01;;;;;;;12.63;3.40;;;18.70;99.90;;;;;;5070942;28;20216;-72
2021/12/09 08:52:28;;;;;;;7.10;3.60;;;18.60;99.90;;;;;;5071354;28;20184;-71
2021/12/09 08:54:55;;;;;;;10.17;3.30;;;18.60;99.90;;;;;;5071198;28;20309;-72
2021/12/09 08:57:23;;;;;;;7.33;2.87;;;18.60;99.90;;;;;;5071316;28;20182;-72
2021/12/09 08:59:51;;;;;;;8.40;2.90;;;18.60;99.90;;;;;;5069657;28;20195;-70
2021/12/09 09:02:20;;;;;;;9.90;3.17;;;18.70;99.90;;;;;;5071384;28;20555;-71
2021/12/09 09:04:48;;;;;;;5.67;2.60;;;18.60;99.90;;;;;;5068476;28;20223;-70
2021/12/09 09:07:15;;;;;;;7.83;2.83;;;18.60;99.90;;;;;;5071445;28;20180;-69
2021/12/09 09:09:42;;;;;;;7.73;3.10;;;18.60;99.90;;;;;;5071050;28;20183;-71
2021/12/09 09:12:14;;;;;;;8.37;3.17;;;18.60;99.90;;;;;;5071344;28;20653;-70
2021/12/09 09:14:42;;;;;;;8.77;3.73;;;18.50;99.90;;;;;;5071236;28;20172;-70
2021/12/09 09:17:10;;;;;;;9.10;3.30;;;18.50;99.90;;;;;;5070868;28;20773;-69
2021/12/09 09:19:37;;;;;;;6.73;3.57;;;18.50;99.90;;;;;;5070500;28;20285;-70
2021/12/09 09:22:06;;;;;;;7.90;3.27;;;18.50;99.90;;;;;;5070985;28;20305;-71
2021/12/09 09:24:34;;;;;;;9.27;3.40;;;18.50;99.90;;;;;;5071666;28;20176;-72
2021/12/09 09:27:01;;;;;;;5.97;3.10;;;18.50;99.90;;;;;;5071092;28;20180;-69
2021/12/09 09:29:32;;;;;;;10.13;3.53;;;18.50;99.90;;;;;;5070494;28;20180;-72
2021/12/09 09:31:59;;;;;;;7.77;3.07;;;18.50;99.90;;;;;;5071167;28;20203;-71
2021/12/09 09:34:26;;;;;;;4.90;2.87;;;18.60;99.90;;;;;;5071555;28;20187;-70
2021/12/09 09:36:59;;;;;;;7.87;2.50;;;18.50;99.90;;;;;;5090765;28;20255;-71
2021/12/09 09:39:29;;;;;;;5.30;3.10;;;18.50;99.90;;;;;;5080673;28;20179;-71
2021/12/09 09:42:34;;;;;;;14.50;5.33;;;18.50;99.90;;;;;;5070950;28;20633;-70
2021/12/09 09:44:54;;;;;;;10.30;3.43;;;18.50;99.90;;;;;;5074776;28;20231;-71
2021/12/09 09:47:27;;;;;;;11.83;2.83;;;18.60;99.90;;;;;;5074854;28;20209;-70
2021/12/09 09:49:57;;;;;;;8.90;3.17;;;18.60;99.90;;;;;;5076093;28;20292;-73
2021/12/09 09:52:25;;;;;;;9.30;3.07;;;18.60;99.90;;;;;;5074662;28;20188;-73
2021/12/09 09:54:54;;;;;;;8.43;3.40;;;18.60;99.90;;;;;;5074595;28;20669;-72
2021/12/09 09:57:23;;;;;;;6.37;3.30;;;18.50;99.90;;;;;;5074123;28;20176;-72
2021/12/09 09:59:50;;;;;;;5.43;3.00;;;18.50;99.90;;;;;;5074469;28;20179;-71
2021/12/09 10:02:18;;;;;;;8.83;3.30;;;18.50;99.90;;;;;;5072624;28;20223;-72
2021/12/09 10:04:48;;;;;;;12.20;3.63;;;18.50;99.90;;;;;;5074343;28;20210;-72
2021/12/09 10:07:22;;;;;;;8.00;3.70;;;18.50;99.90;;;;;;5074157;28;20195;-72
2021/12/09 10:09:50;;;;;;;9.13;3.53;;;18.60;99.90;;;;;;5073872;28;20186;-71
2021/12/09 10:12:18;;;;;;;6.10;2.97;;;18.60;99.90;;;;;;5074397;28;20649;-72
2021/12/09 10:14:54;;;;;;;6.23;2.97;;;18.50;99.90;;;;;;5074139;28;20187;-73
2021/12/09 10:17:28;;;;;;;8.57;3.47;;;18.50;99.90;;;;;;5074194;28;20181;-72
2021/12/09 10:20:05;;;;;;;10.33;3.63;;;18.50;99.90;;;;;;5073876;28;20230;-72
2021/12/09 10:22:35;;;;;;;9.33;3.00;;;18.40;99.90;;;;;;5074272;28;20275;-71
2021/12/09 10:25:25;;;;;;;14.07;3.63;;;18.50;99.90;;;;;;5074160;28;20188;-71
2021/12/09 10:28:04;;;;;;;6.53;3.07;;;18.40;99.90;;;;;;5073780;28;20268;-71
2021/12/09 10:30:36;;;;;;;7.13;3.27;;;18.40;99.90;;;;;;5073770;28;20726;-72
2021/12/09 10:33:04;;;;;;;6.90;3.37;;;18.30;99.90;;;;;;5073567;28;20657;-70
2021/12/09 10:35:32;;;;;;;12.30;3.87;;;18.40;99.90;;;;;;5073570;28;20686;-72
2021/12/09 10:38:04;;;;;;;8.20;3.20;;;18.40;99.90;;;;;;5073907;28;20179;-72
2021/12/09 10:40:31;;;;;;;12.30;3.50;;;18.40;99.90;;;;;;5072858;28;20195;-70
2021/12/09 10:43:03;;;;;;;5.70;3.73;;;18.30;99.90;;;;;;5073222;28;20180;-68
2021/12/09 10:45:37;;;;;;;8.00;3.17;;;18.40;99.90;;;;;;5073165;28;20190;-71
2021/12/09 10:48:32;;;;;;;8.30;3.53;;;18.40;99.90;;;;;;5072964;28;20271;-70
2021/12/09 10:53:47;;;;;;;6.30;3.37;;;18.20;99.90;;;;;;5070781;28;20184;-72
2021/12/09 10:56:26;;;;;;;6.87;3.07;;;18.20;99.90;;;;;;5071106;28;20229;-70
2021/12/09 10:58:53;;;;;;;6.60;3.50;;;18.20;99.90;;;;;;5070946;28;20634;-71
2021/12/09 11:01:23;;;;;;;9.33;3.87;;;18.20;99.90;;;;;;5072920;28;20199;-70
2021/12/09 11:03:56;;;;;;;9.40;3.80;;;18.20;99.90;;;;;;5073119;28;20211;-70
2021/12/09 11:06:29;;;;;;;11.10;4.03;;;18.20;99.90;;;;;;5070946;28;20716;-72
2021/12/09 11:08:59;;;;;;;11.27;4.10;;;18.20;99.90;;;;;;5070848;28;20191;-72
2021/12/09 11:11:36;;;;;;;9.53;3.33;;;18.30;99.90;;;;;;5073272;28;20208;-73
2021/12/09 11:14:18;;;;;;;7.50;3.73;;;18.20;99.90;;;;;;5073274;28;20233;-73
2021/12/09 11:17:06;;;;;;;5.03;3.70;;;18.10;99.90;;;;;;5073032;28;20176;-71
2021/12/09 11:19:39;;;;;;;7.37;4.00;;;18.10;99.90;;;;;;5075807;28;20182;-70
2021/12/09 11:22:09;;;;;;;12.33;3.80;;;18.10;99.90;;;;;;5092065;28;20176;-70
2021/12/09 11:24:42;;;;;;;8.30;4.07;;;18.10;99.90;;;;;;5092156;28;20185;-71
2021/12/09 11:27:15;;;;;;;7.23;3.30;;;18.00;99.90;;;;;;5074193;28;20218;-72
2021/12/09 11:29:48;;;;;;;6.47;3.20;;;18.00;99.90;;;;;;5072885;28;20186;-72
2021/12/09 11:32:42;;;;;;;6.33;3.30;;;18.00;99.90;;;;;;5072964;28;20175;-71
2021/12/09 11:35:19;;;;;;;7.03;2.80;;;18.10;99.90;;;;;;5072751;28;20183;-70
2021/12/09 11:37:58;;;;;;;6.90;3.60;;;18.10;99.90;;;;;;5072718;28;20213;-70
2021/12/09 11:40:37;;;;;;;6.90;3.63;;;18.10;99.90;;;;;;5072290;28;20595;-71
2021/12/09 11:43:07;;;;;;;6.03;3.57;;;18.00;99.90;;;;;;5064228;28;20195;-71
2021/12/09 11:45:40;;;;;;;6.97;3.60;;;18.10;99.90;;;;;;5072246;28;20198;-72
2021/12/09 11:48:09;;;;;;;7.50;3.10;;;18.10;99.90;;;;;;5072501;28;20186;-70
2021/12/09 11:50:39;;;;;;;6.30;2.90;;;18.10;99.90;;;;;;5071952;28;20216;-68
2021/12/09 11:53:12;;;;;;;9.00;3.00;;;18.10;99.90;;;;;;5071114;28;20266;-70
2021/12/09 11:55:46;;;;;;;4.13;3.03;;;18.00;99.90;;;;;;5072320;28;20176;-70
2021/12/09 11:58:21;;;;;;;8.07;3.43;;;18.10;99.90;;;;;;5071999;28;20230;-71
2021/12/09 12:13:06;;;;;;;6.37;2.93;;;18.10;99.90;;;;;;5052397;28;20662;-71
2021/12/09 12:15:50;;;;;;;9.00;3.83;;;18.10;99.90;;;;;;5053615;28;20176;-69
2021/12/09 12:18:50;;;;;;;6.60;3.43;;;18.10;99.90;;;;;;5071606;28;20258;-70
2021/12/09 12:35:12;;;;;;;9.83;4.07;;;18.00;99.90;;;;;;5073276;28;20648;-71
2021/12/09 12:37:57;;;;;;;7.40;3.63;;;17.90;99.90;;;;;;5073616;28;20196;-72
2021/12/09 12:40:41;;;;;;;4.77;3.63;;;17.90;99.90;;;;;;5073329;28;20531;-71
2021/12/09 12:43:13;;;;;;;6.63;4.20;;;17.90;99.90;;;;;;5074017;28;20259;-72
2021/12/09 12:45:49;;;;;;;5.23;3.47;;;17.80;99.90;;;;;;5071905;28;20214;-71
2021/12/09 12:51:28;;;;;;;7.77;4.00;;;17.90;99.90;;;;;;5073180;28;20328;-70
2021/12/09 12:54:07;;;;;;;6.73;3.60;;;17.80;99.90;;;;;;5071850;28;20183;-72
2021/12/09 12:56:47;;;;;;;7.70;4.10;;;17.80;99.90;;;;;;5073647;28;20309;-72
2021/12/09 12:59:18;;;;;;;11.10;4.00;;;17.80;99.90;;;;;;5073327;28;20245;-70
2021/12/09 13:02:27;;;;;;;10.47;4.07;;;17.80;99.90;;;;;;5072063;28;20195;-70
2021/12/09 13:05:16;;;;;;;9.33;3.77;;;17.80;99.90;;;;;;5073078;28;20215;-71
2021/12/09 13:10:29;;;;;;;3.97;3.57;;;17.80;99.90;;;;;;5073084;28;20286;-70
2021/12/09 13:13:17;;;;;;;10.00;4.57;;;17.80;99.90;;;;;;5071853;28;20664;-71
2021/12/09 13:16:14;;;;;;;8.20;4.40;;;17.90;99.90;;;;;;5072448;28;20184;-71
2021/12/09 13:18:58;;;;;;;14.13;6.00;;;17.90;99.90;;;;;;5075642;28;20179;-71
2021/12/09 13:21:53;;;;;;;10.13;6.27;;;17.90;99.90;;;;;;5077447;28;20171;-70
2021/12/09 13:24:31;;;;;;;4.93;2.47;;;17.90;99.90;;;;;;5076955;28;20182;-70
2021/12/09 13:27:16;;;;;;;3.43;1.27;;;17.50;99.90;;;;;;5077079;28;20211;-71
2021/12/09 13:35:21;;;;;;;1.50;1.13;;;16.50;99.90;;;;;;5077006;28;20656;-70
2021/12/09 13:38:12;;;;;;;2.30;0.90;;;16.30;99.90;;;;;;5076764;28;20187;-69
2021/12/09 13:51:56;;;;;;;3.90;0.97;;;15.70;99.90;;;;;;5076742;28;20219;-71
2021/12/09 13:54:27;;;;;;;2.70;1.20;;;15.70;99.90;;;;;;5076513;28;20218;-71
2021/12/09 13:57:04;;;;;;;3.93;1.47;;;15.70;99.90;;;;;;5076218;28;20195;-70
2021/12/09 13:59:35;;;;;;;3.67;1.20;;;15.60;99.90;;;;;;5076320;28;20195;-70
2021/12/09 14:02:16;;;;;;;5.97;1.97;;;15.50;99.90;;;;;;5076048;28;20190;-70